What does KjM see today?
A deliberately small live gimmick in a historical museum: these are aircraft actually received by KjM's own 1090 MHz antenna. No FlightRadar24, no ADS-B Exchange and no third-party feed — just the local receiver and whatever radio signals reach it.
Twenty years later, ACARSd is listening again.
In August 2026 an old RTL-SDR stick was connected to a Raspberry Pi 5 and readsb. The receiver samples local Mode-S / ADS-B traffic continuously; a small ACARSd feeder stores snapshots in the restored database and forwards a compatible subset into the historical message stream.
This page is intentionally not a global aircraft tracker. It answers a much smaller question: what can KjM's own antenna hear today?
Explore the daily reception statistics →
A compact overview of traffic by hour, aircraft types, manufacturers, airlines and routes received by the local station.
Receiver: HU-BALATONSZARSZO-01
Source: local RTL-SDR / readsb
Upload: approximately every 15 minutes
Times shown: UTC
Latest observation:
2026-09-04 06:13:52 UTC
2026-09-04 — 710 matching observations
| UTC | Flight | Registration | ICAO24 | Airline / aircraft | Altitude | Speed | Heading | Position |
|---|---|---|---|---|---|---|---|---|
| 06:13:52 | JDI007 | SP-TOP | 48C9CF | — GULFSTREAM G650;;; · GLF6 | 41,000 ft | 424.70 kt | 20.80° | 45.955627, 19.961488 |
| 06:13:52 | BAW879 | G-EUYN | 406674 | British Airways Airbus A320-232 · A320 | 34,000 ft | 443.20 kt | 275.70° | 46.288422, 18.693974 |
| 06:13:52 | AAL160 | N815AA | AB1BF0 | American Airlines Boeing 787-8 · B788 | 41,000 ft | 527.40 kt | 139.00° | 46.218842, 16.433068 |
| 06:13:52 | RYR8YH | 9H-QCM | 4D2290 | Ryanair BOEING 737-800;;; · B738 | 10,825 ft | 355.80 kt | 129.60° | 47.503189, 18.906647 |
| 06:13:52 | RYR41CA | EI-EBX | 4CA73F | Ryanair Boeing 737-8AS/W · B738 | 29,800 ft | 444.80 kt | 261.60° | 47.255223, 17.431007 |
| 06:13:52 | WMT3030 | HA-LTK | 471F04 | Wizz Air Malta Airbus Airbus A321-231 · A321 | 36,000 ft | 456.00 kt | 90.60° | 45.511004, 15.531251 |
| 06:13:52 | CTN4AT | 9A-CQE | 501DD0 | Croatia Airlines DE HAVILLAND DHC-8-400 Dash 8;;; · DH8D | 16,800 ft | 286.50 kt | 346.90° | 46.264481, 16.032670 |
| 06:13:52 | KLM462 | PH-BXO | 48418A | KLM Royal Dutch Airlines Boeing Boeing 737-9K2 · B739 | 38,000 ft | 405.40 kt | 313.30° | 45.803329, 16.536969 |
| 06:13:52 | THY5RN | TC-JSU | 4BAA75 | Turkish Airlines Airbus A321-231SL · A321 | 34,000 ft | 381.60 kt | 312.10° | 47.593552, 19.877701 |
| 06:13:52 | CAI5TP | TC-TJY | 4BD159 | Corendon Airlines - Turistik Hava Tasimacilik Boeing Boeing 737-8AS · B738 | 38,000 ft | 387.50 kt | 304.60° | 46.305930, 18.149895 |
| 06:13:52 | THY5XV | TC-LSY | 4BB279 | Turkish Airlines AIRBUS A-321neo;;; · A21N | 32,025 ft | 410.60 kt | 305.10° | 48.244354, 16.551819 |
| 06:13:52 | ENT7EP | SP-ESG | 489226 | Enter Air BOEING 737-800;;; · B738 | 39,000 ft | 474.50 kt | 131.80° | 45.370605, 16.133161 |
| 06:13:52 | NGN4820 | D-ANNE | 3C79C5 | LEAV Aviation Airbus Airbus A320-232 · A320 | 37,000 ft | 483.00 kt | 139.50° | 45.406128, 15.504913 |
| 06:13:52 | BTI3AK | YL-ABH | 502D59 | Air Baltic Airbus Airbus A220-300 · BCS3 | 38,000 ft | 480.70 kt | 198.10° | 47.202209, 19.092865 |
| 06:13:52 | CFG4308 | 9A-SHO | 501C16 | Condor Flugdienst Airbus Airbus A320-214 · A320 | 35,975 ft | 404.70 kt | 317.00° | 45.381915, 16.693458 |
| 06:13:52 | FIN78D | OH-LZN | 461FA3 | Finnair AIRBUS A-321;;; · A321 | 36,000 ft | 473.50 kt | 218.20° | 47.533951, 17.733238 |
| 06:13:52 | JTD557 | OY-JZM | 45AB4D | Jettime BOEING 737-800;;; · B738 | 37,000 ft | 503.20 kt | 156.10° | 47.778534, 16.158348 |
| 06:13:52 | CTN4430 | 9A-ATR | 501C5E | Croatia Airlines ATR-72-600;;; · AT76 | 18,000 ft | 229.40 kt | 309.50° | 46.427711, 17.243248 |
| 06:13:52 | JAF14K | D-ABKI | 3C4969 | Jetairfly.com (Belgium) Boeing 737-86J/W · B738 | 39,000 ft | 478.90 kt | 136.60° | 45.357800, 15.474310 |
| 06:13:52 | AUA806 | OE-LZF | 440609 | Austrian Airlines AIRBUS A-320;;; · A320 | 9,950 ft | 285.70 kt | 266.00° | 47.701172, 17.061836 |
| 06:13:52 | RYR4799 | SP-RZX | 48C2B6 | Ryanair Boeing Boeing 737 MAX 8-200 · B38M | 37,000 ft | 407.90 kt | 25.90° | 46.252441, 16.940248 |
| 06:13:52 | WMT6JU | 9H-XLF | 4D2186 | Wizz Air Malta AIRBUS A-321neo;;; · A21N | 35,000 ft | 458.00 kt | 79.90° | 47.008589, 18.784720 |
| 06:13:52 | WMT7NJ | 9H-WAN | 4D2422 | Wizz Air Malta Airbus Airbus A320-271N · A20N | 32,975 ft | 471.80 kt | 102.90° | 46.481572, 17.588219 |
| 06:13:52 | CAI34AC | TC-COE | 4B8DE5 | Corendon Airlines - Turistik Hava Tasimacilik BOEING 737-800;;; · B738 | 36,000 ft | 411.40 kt | 301.20° | 45.964737, 15.967824 |
| 06:13:52 | SXS6SJ | TC-SOL | 4BCDEC | Sun Express BOEING 737 MAX 8;;; · B38M | 40,000 ft | 371.40 kt | 321.30° | 47.851744, 17.315369 |
| 06:13:52 | THY2ZN | TC-JSL | 4BAA6C | Turkish Airlines Airbus A321-231SL · A321 | 34,975 ft | 493.50 kt | 113.70° | 47.259971, 17.124939 |
| 06:13:52 | SXS1322 | TC-SOE | 4BCDE5 | Sun Express BOEING 737-800;;; · B738 | 36,000 ft | 403.80 kt | 301.80° | 45.721327, 17.825386 |
| 06:13:52 | RYR5PF | 9H-QAC | 4D21EB | Ryanair BOEING 737-800;;; · B738 | 33,000 ft | 486.60 kt | 116.10° | 48.157592, 18.978600 |
| 06:13:52 | SXS8QY | TC-SPD | 4BCE04 | Sun Express BOEING 737-800;;; · B738 | 35,000 ft | 494.50 kt | 119.80° | 45.629700, 17.849233 |
| 06:13:52 | SXS4MB | TC-SPP | 4BCE10 | Sun Express Boeing Boeing 737-8MA(WL) · B738 | 36,000 ft | 394.70 kt | 304.60° | 46.347473, 18.652708 |
| 06:13:52 | CAT323 | OY-ASF | 458666 | Copenhagen AirTaxi Boeing Boeing 737-8GJ · B738 | 39,000 ft | 505.00 kt | 161.50° | 45.747163, 17.204178 |
| 06:13:52 | MSC2990 | SU-BVL | 010263 | Air Cairo AIRBUS A-320neo;;; · A20N | 26,775 ft | 373.40 kt | 296.60° | 47.541100, 18.471328 |
| 06:13:52 | VCJ97S | 9H-NATHO | 4D2073 | Avcon Jet Malta Gulfstream Gulfstream G650 · GLF6 | 43,000 ft | 465.50 kt | 313.10° | 45.622683, 16.828033 |
| 06:13:52 | THY6VM | TC-JOK | 4BA9EB | Turkish Airlines Airbus A330-303 · A333 | 38,000 ft | 416.70 kt | 302.40° | 45.554391, 16.880768 |
| 06:13:52 | DLH5JW | D-AILA | 3C6581 | Lufthansa Airbus A319-114 · A319 | 21,125 ft | 416.50 kt | 108.50° | 47.994054, 17.872080 |
| 06:13:52 | TVQ6717 | OK-SWE | 49D2EE | Smartwings Slovakia Piper PA-46-500TP · P46T | 31,825 ft | 427.20 kt | 30.50° | 46.800293, 15.524887 |
| 06:13:52 | AEE530 | SX-DGJ | 4690EA | Aegean Airlines Airbus A320-232 · A320 | 38,000 ft | 392.00 kt | 312.50° | 45.563841, 17.643082 |
| 06:13:52 | RYR75MP | 9H-LON | 4D22B5 | Ryanair AIRBUS A-320;;; · A320 | 24,725 ft | 471.10 kt | 105.00° | 47.844435, 17.955886 |
| 06:13:52 | SXS6HK | TC-SLF | 4BCD86 | Sun Express BOEING 737 MAX 8;;; · B38M | 38,000 ft | 391.70 kt | 300.40° | 46.741608, 16.987007 |
| 06:13:52 | DHK052 | G-DHMD | 408143 | DHL Air UK Boeing Boeing 777-FZB · B77L | 33,000 ft | 540.40 kt | 120.20° | 47.793646, 19.716163 |
| 06:13:52 | PGT35R | TC-RFG | 4BC8C7 | Pegasus Airlines Airbus Airbus A321-251NX · A21N | 36,025 ft | 399.80 kt | 295.80° | 46.887589, 18.279259 |
| 06:13:52 | EWG15M | D-AIDT | 3C6494 | Eurowings Airbus Airbus A321 231 · A321 | 37,000 ft | 509.60 kt | 127.20° | 47.399002, 19.457268 |
| 06:13:52 | AUA780K | OE-LWH | 440824 | Austrian Airlines Embraer 195 · E190 | 22,375 ft | 367.60 kt | 296.80° | 47.508979, 18.203501 |
| 06:13:52 | ASL80A | YU-ALZ | 4C0179 | Air Serbia Atr ATR 72-600 · AT76 | 18,000 ft | 226.40 kt | 312.90° | 46.822311, 18.993553 |
| 06:13:52 | RYR79TG | SP-RZI | 48C2A8 | Ryanair Boeing Boeing 737 MAX 8-200 · B38M | 38,000 ft | 481.40 kt | 211.20° | 48.115788, 16.906058 |
| 06:13:52 | EJU69DQ | OE-ICB | 4403BB | easyJet Europe Airbus Airbus A320 214SL · A320 | 34,000 ft | 484.40 kt | 184.40° | 45.836746, 17.272183 |
| 06:13:48 | THY9SD | TC-JHS | 4BA913 | Turkish Airlines Boeing 737-8F2/W · B738 | 32,000 ft | 425.30 kt | 290.70° | 45.412686, 17.122661 |
| 06:13:37 | WMT8115 | HA-LXY | 471F7A | Wizz Air Malta AIRBUS A-321;;; · A321 | 36,000 ft | 400.30 kt | 319.90° | 46.200955, 15.592072 |
| 06:13:25 | EWG5B | 9H-SWA | 4D2477 | Eurowings Airbus Airbus A320-232 · A320 | 23,050 ft | 401.10 kt | 110.00° | 47.955741, 18.075538 |
| 06:13:14 | THY8YU | TC-JSP | 4BAA70 | Turkish Airlines Airbus A321-231SL · A321 | 18,975 ft | 407.00 kt | 98.10° | 47.911889, 17.305016 |
Results are paged at 50 observations per page. They are snapshots received by the local station, not a reconstruction of complete flights.